Time;durP1;ratioP1;P1;durP2;ratioP2;P2;SDS_P1;SDS_P2;PMS_P1;PMS_P2;Temp;Humidity;BMP_temperature;BMP_pressure;BME280_temperature;BME280_humidity;BME280_pressure;Samples;Min_cycle;Max_cycle;Signal;HPM_P1;HPM_P2
2023/06/25 00:01:15;;;;;;;21.35;12.32;;;;;;;;;;5013099;28;20013;-62
2023/06/25 00:03:41;;;;;;;18.85;11.77;;;;;;;;;;5007530;28;20121;-63
2023/06/25 00:06:06;;;;;;;18.58;12.13;;;;;;;;;;4996083;28;20227;-63
2023/06/25 00:08:31;;;;;;;18.63;12.10;;;;;;;;;;5011229;28;20488;-63
2023/06/25 00:10:57;;;;;;;20.75;12.07;;;;;;;;;;4993535;28;20100;-63
2023/06/25 00:13:22;;;;;;;19.90;12.23;;;;;;;;;;4996184;28;20021;-63
2023/06/25 00:15:47;;;;;;;21.83;12.63;;;;;;;;;;5012862;28;20481;-63
2023/06/25 00:18:13;;;;;;;22.20;12.25;;;;;;;;;;5012656;28;20030;-63
2023/06/25 00:20:38;;;;;;;19.88;12.55;;;;;;;;;;5008442;28;20471;-63
2023/06/25 00:23:05;;;;;;;19.88;12.65;;;;;;;;;;5011650;28;20028;-63
2023/06/25 00:25:30;;;;;;;22.80;13.00;;;;;;;;;;5012147;28;20046;-63
2023/06/25 00:27:57;;;;;;;26.33;12.70;;;;;;;;;;5012364;28;20053;-63
2023/06/25 00:30:23;;;;;;;20.25;12.43;;;;;;;;;;4996247;28;20508;-63
2023/06/25 00:32:54;;;;;;;20.23;12.85;;;;;;;;;;5013207;28;20045;-63
2023/06/25 00:35:24;;;;;;;24.05;13.30;;;;;;;;;;5012060;28;20026;-63
2023/06/25 00:37:50;;;;;;;20.25;12.32;;;;;;;;;;5007128;28;20025;-63
2023/06/25 00:40:15;;;;;;;23.95;13.40;;;;;;;;;;5002026;28;20021;-63
2023/06/25 00:42:41;;;;;;;25.25;13.32;;;;;;;;;;5012822;28;20022;-63
2023/06/25 00:45:10;;;;;;;25.70;14.25;;;;;;;;;;5012717;28;20022;-63
2023/06/25 00:47:35;;;;;;;24.38;14.05;;;;;;;;;;5012753;28;20041;-63
2023/06/25 00:50:02;;;;;;;24.80;14.25;;;;;;;;;;5007167;28;20015;-63
2023/06/25 00:52:28;;;;;;;24.65;14.20;;;;;;;;;;5004597;28;20049;-63
2023/06/25 00:54:53;;;;;;;26.42;14.07;;;;;;;;;;5011934;28;20025;-63
2023/06/25 00:57:21;;;;;;;26.48;14.07;;;;;;;;;;5014937;28;20387;-63
2023/06/25 00:59:48;;;;;;;24.70;14.13;;;;;;;;;;5016417;28;20022;-63
2023/06/25 01:02:16;;;;;;;26.33;15.75;;;;;;;;;;5010734;28;20150;-63
2023/06/25 01:04:46;;;;;;;26.23;15.32;;;;;;;;;;5013256;28;20072;-63
2023/06/25 01:07:17;;;;;;;26.20;16.33;;;;;;;;;;5012436;28;20413;-63
2023/06/25 01:09:49;;;;;;;28.42;16.30;;;;;;;;;;5006290;28;20026;-64
2023/06/25 01:12:15;;;;;;;29.85;16.27;;;;;;;;;;5006774;28;20447;-63
2023/06/25 01:14:40;;;;;;;30.65;16.83;;;;;;;;;;5006016;28;20030;-63
2023/06/25 01:17:06;;;;;;;28.30;16.75;;;;;;;;;;5009571;28;20025;-62
2023/06/25 01:19:31;;;;;;;30.30;17.10;;;;;;;;;;5012098;28;20022;-63
2023/06/25 01:21:57;;;;;;;28.30;16.52;;;;;;;;;;5014657;28;20060;-63
2023/06/25 01:24:23;;;;;;;24.90;16.33;;;;;;;;;;4997412;28;20383;-63
2023/06/25 01:26:54;;;;;;;28.75;16.92;;;;;;;;;;5009313;28;20017;-63
2023/06/25 01:29:20;;;;;;;31.23;16.55;;;;;;;;;;5005420;28;20025;-62
2023/06/25 01:31:45;;;;;;;26.70;16.75;;;;;;;;;;4996504;28;20026;-63
2023/06/25 01:34:10;;;;;;;30.15;16.48;;;;;;;;;;5014061;28;20030;-63
2023/06/25 01:36:39;;;;;;;29.38;17.45;;;;;;;;;;5014935;28;20030;-62
2023/06/25 01:39:06;;;;;;;29.90;17.88;;;;;;;;;;5014183;28;20384;-63
2023/06/25 01:41:31;;;;;;;30.73;17.88;;;;;;;;;;5015846;28;20614;-63
2023/06/25 01:43:57;;;;;;;29.23;17.67;;;;;;;;;;5006821;28;20121;-63
2023/06/25 01:46:22;;;;;;;30.27;17.58;;;;;;;;;;5006322;28;20468;-63
2023/06/25 01:48:47;;;;;;;30.30;18.73;;;;;;;;;;5014646;28;20022;-63
2023/06/25 01:51:13;;;;;;;31.30;18.65;;;;;;;;;;5014098;28;20235;-63
2023/06/25 01:53:38;;;;;;;33.25;19.23;;;;;;;;;;5002961;28;20026;-63
2023/06/25 01:56:03;;;;;;;36.80;20.10;;;;;;;;;;5003190;28;20048;-63
2023/06/25 01:58:29;;;;;;;35.20;20.33;;;;;;;;;;5009627;28;20088;-63
2023/06/25 02:00:54;;;;;;;39.63;21.95;;;;;;;;;;5011019;28;20026;-63
2023/06/25 02:03:19;;;;;;;38.33;22.00;;;;;;;;;;5008072;28;20052;-63
2023/06/25 02:05:45;;;;;;;38.53;22.05;;;;;;;;;;5013841;28;20042;-62
2023/06/25 02:08:10;;;;;;;39.08;22.33;;;;;;;;;;5011664;28;20108;-63
2023/06/25 02:10:35;;;;;;;41.33;23.38;;;;;;;;;;5004717;28;20026;-63
2023/06/25 02:13:00;;;;;;;36.92;22.35;;;;;;;;;;5007323;28;20101;-63
2023/06/25 02:15:26;;;;;;;39.95;22.60;;;;;;;;;;5012075;28;20041;-63
2023/06/25 02:17:51;;;;;;;48.05;23.30;;;;;;;;;;5011677;28;20034;-63
2023/06/25 02:20:17;;;;;;;43.17;22.88;;;;;;;;;;5012390;28;20468;-63
2023/06/25 02:22:42;;;;;;;44.97;23.67;;;;;;;;;;5003968;28;20153;-63
2023/06/25 02:25:07;;;;;;;49.55;24.45;;;;;;;;;;4999027;28;20080;-63
2023/06/25 02:27:33;;;;;;;40.95;23.40;;;;;;;;;;5011119;28;20388;-62
2023/06/25 02:29:58;;;;;;;46.42;25.70;;;;;;;;;;5013422;28;20499;-63
2023/06/25 02:32:23;;;;;;;44.38;24.20;;;;;;;;;;5011455;28;20152;-63
2023/06/25 02:34:49;;;;;;;47.35;24.73;;;;;;;;;;5005620;28;20164;-63
2023/06/25 02:37:14;;;;;;;43.00;24.85;;;;;;;;;;5011256;28;20032;-63
2023/06/25 02:39:40;;;;;;;43.30;25.00;;;;;;;;;;4999071;28;20053;-63
2023/06/25 02:42:05;;;;;;;44.45;25.23;;;;;;;;;;5011177;28;20030;-62
2023/06/25 02:44:30;;;;;;;40.28;23.70;;;;;;;;;;5012498;28;20029;-63
2023/06/25 02:46:55;;;;;;;42.33;23.58;;;;;;;;;;5013509;28;20034;-62
2023/06/25 02:49:21;;;;;;;47.53;25.45;;;;;;;;;;5000988;28;20076;-68
2023/06/25 02:51:46;;;;;;;47.22;26.60;;;;;;;;;;5010428;28;20041;-68
2023/06/25 02:54:11;;;;;;;46.10;25.15;;;;;;;;;;5012629;28;20033;-68
2023/06/25 02:56:37;;;;;;;47.28;25.88;;;;;;;;;;5013109;28;20038;-68
2023/06/25 02:59:02;;;;;;;50.75;26.27;;;;;;;;;;5009898;28;20030;-68
2023/06/25 03:01:28;;;;;;;48.88;24.70;;;;;;;;;;5012847;28;20105;-68
2023/06/25 03:03:53;;;;;;;50.70;26.48;;;;;;;;;;4998649;28;20074;-68
2023/06/25 03:06:18;;;;;;;50.67;27.40;;;;;;;;;;4999311;28;20026;-68
2023/06/25 03:08:44;;;;;;;55.47;27.00;;;;;;;;;;5011874;28;20045;-68
2023/06/25 03:11:09;;;;;;;52.00;27.15;;;;;;;;;;4999942;28;20484;-67
2023/06/25 03:13:34;;;;;;;49.38;26.10;;;;;;;;;;5001872;28;20050;-68
2023/06/25 03:15:59;;;;;;;52.80;28.98;;;;;;;;;;5011047;28;20025;-67
2023/06/25 03:18:25;;;;;;;53.28;27.73;;;;;;;;;;5009426;28;20034;-67
2023/06/25 03:20:50;;;;;;;52.72;29.00;;;;;;;;;;5011704;28;20038;-68
2023/06/25 03:23:16;;;;;;;54.15;27.90;;;;;;;;;;5002182;28;20021;-67
2023/06/25 03:25:41;;;;;;;51.22;27.73;;;;;;;;;;5006865;28;20034;-67
2023/06/25 03:28:06;;;;;;;49.03;27.33;;;;;;;;;;5012458;28;20080;-68
2023/06/25 03:30:32;;;;;;;49.83;27.65;;;;;;;;;;5011327;28;20511;-68
2023/06/25 03:32:57;;;;;;;49.55;27.35;;;;;;;;;;5006078;28;20028;-67
2023/06/25 03:35:22;;;;;;;46.92;26.23;;;;;;;;;;5006066;28;20111;-66
2023/06/25 03:37:48;;;;;;;40.65;24.73;;;;;;;;;;5005097;28;20057;-66
2023/06/25 03:40:13;;;;;;;46.20;24.75;;;;;;;;;;5012139;28;20484;-66
2023/06/25 03:42:38;;;;;;;45.90;26.13;;;;;;;;;;5008809;28;20531;-66
2023/06/25 03:45:04;;;;;;;44.03;24.27;;;;;;;;;;5003027;28;20057;-66
2023/06/25 03:47:30;;;;;;;41.92;24.02;;;;;;;;;;5012422;28;20018;-66
2023/06/25 03:49:55;;;;;;;36.95;22.80;;;;;;;;;;5008474;28;20357;-66
2023/06/25 03:52:20;;;;;;;36.40;22.50;;;;;;;;;;5010249;28;20029;-66
2023/06/25 03:54:46;;;;;;;37.40;20.45;;;;;;;;;;5002608;28;20124;-66
2023/06/25 03:57:11;;;;;;;30.02;18.73;;;;;;;;;;5013579;28;20109;-66
2023/06/25 03:59:36;;;;;;;33.10;18.10;;;;;;;;;;5011186;28;20034;-66
2023/06/25 04:02:02;;;;;;;29.13;18.70;;;;;;;;;;5008104;28;20026;-66
2023/06/25 04:04:27;;;;;;;30.02;18.58;;;;;;;;;;5006373;28;20034;-66
2023/06/25 04:06:52;;;;;;;30.30;17.65;;;;;;;;;;5006755;28;20531;-66
2023/06/25 04:09:18;;;;;;;27.40;16.02;;;;;;;;;;5001126;28;20062;-66
2023/06/25 04:11:44;;;;;;;26.75;15.63;;;;;;;;;;5011906;28;20029;-66
2023/06/25 04:14:09;;;;;;;23.83;15.25;;;;;;;;;;5005387;28;20026;-66
2023/06/25 04:16:35;;;;;;;27.83;16.00;;;;;;;;;;5007595;28;20034;-65
2023/06/25 04:19:01;;;;;;;22.83;14.48;;;;;;;;;;5011909;28;20365;-65
2023/06/25 04:21:26;;;;;;;24.95;14.00;;;;;;;;;;5002111;28;20033;-65
2023/06/25 04:23:51;;;;;;;21.38;13.45;;;;;;;;;;5009374;28;20488;-65
2023/06/25 04:26:16;;;;;;;21.33;12.90;;;;;;;;;;5006024;28;20030;-66
2023/06/25 04:28:42;;;;;;;21.73;12.98;;;;;;;;;;5002340;28;20018;-66
2023/06/25 04:31:07;;;;;;;20.33;13.40;;;;;;;;;;5009380;28;20033;-66
2023/06/25 04:33:34;;;;;;;22.02;13.40;;;;;;;;;;5013732;28;20021;-67
2023/06/25 04:36:00;;;;;;;21.75;13.25;;;;;;;;;;5002774;28;20081;-66
2023/06/25 04:38:25;;;;;;;21.77;13.07;;;;;;;;;;5012384;28;20479;-66
2023/06/25 04:40:50;;;;;;;20.90;13.48;;;;;;;;;;5009395;28;20042;-66
2023/06/25 04:43:15;;;;;;;23.30;13.35;;;;;;;;;;5003796;28;20018;-66
2023/06/25 04:45:41;;;;;;;19.85;13.05;;;;;;;;;;5003235;28;20054;-66
2023/06/25 04:48:07;;;;;;;24.02;13.45;;;;;;;;;;5016833;28;20030;-66
2023/06/25 04:50:32;;;;;;;19.80;13.32;;;;;;;;;;5016609;28;20451;-66
2023/06/25 04:52:58;;;;;;;22.95;13.30;;;;;;;;;;5010245;28;20033;-66
2023/06/25 04:55:24;;;;;;;18.92;13.23;;;;;;;;;;5009425;28;20029;-66
2023/06/25 04:57:49;;;;;;;23.65;12.75;;;;;;;;;;5016077;28;20388;-66
2023/06/25 05:00:15;;;;;;;20.48;12.60;;;;;;;;;;5012768;28;20382;-65
2023/06/25 05:02:40;;;;;;;20.17;13.05;;;;;;;;;;5005051;28;20550;-65
2023/06/25 05:05:06;;;;;;;19.17;13.13;;;;;;;;;;5014980;28;20038;-65
2023/06/25 05:07:31;;;;;;;21.90;12.65;;;;;;;;;;5013585;28;20125;-65
2023/06/25 05:09:56;;;;;;;17.30;12.57;;;;;;;;;;5010534;28;20023;-66
2023/06/25 05:12:21;;;;;;;20.67;12.73;;;;;;;;;;5006053;28;20049;-66
2023/06/25 05:14:47;;;;;;;17.15;13.02;;;;;;;;;;5001116;28;20113;-66
2023/06/25 05:17:12;;;;;;;18.48;12.48;;;;;;;;;;5010634;28;20018;-66
2023/06/25 05:19:37;;;;;;;19.63;12.35;;;;;;;;;;5005303;28;20128;-66
2023/06/25 05:22:04;;;;;;;18.10;12.63;;;;;;;;;;5003291;28;20427;-66
2023/06/25 05:24:30;;;;;;;18.27;12.85;;;;;;;;;;4998026;28;20033;-66
2023/06/25 05:26:55;;;;;;;17.42;12.80;;;;;;;;;;5007324;28;20093;-66
2023/06/25 05:29:20;;;;;;;17.58;12.70;;;;;;;;;;5011129;28;20026;-66
2023/06/25 05:31:46;;;;;;;16.48;12.65;;;;;;;;;;5007183;28;20029;-66
2023/06/25 05:34:11;;;;;;;19.95;13.73;;;;;;;;;;5006827;28;20021;-66
2023/06/25 05:36:36;;;;;;;20.65;13.00;;;;;;;;;;5005588;28;20057;-66
2023/06/25 05:39:02;;;;;;;18.60;12.93;;;;;;;;;;5006084;28;20116;-66
2023/06/25 05:41:27;;;;;;;17.52;13.52;;;;;;;;;;5013233;28;20033;-66
2023/06/25 05:43:52;;;;;;;17.30;12.85;;;;;;;;;;5009630;28;20161;-66
2023/06/25 05:46:17;;;;;;;17.48;12.10;;;;;;;;;;5012999;28;20034;-66
2023/06/25 05:48:43;;;;;;;17.48;13.32;;;;;;;;;;5013153;28;20354;-66
2023/06/25 05:51:08;;;;;;;15.48;12.32;;;;;;;;;;5014195;28;20076;-66
2023/06/25 05:53:38;;;;;;;19.98;12.65;;;;;;;;;;5013505;28;20423;-65
2023/06/25 05:56:03;;;;;;;17.83;12.27;;;;;;;;;;5013257;28;20065;-65
2023/06/25 05:58:29;;;;;;;17.17;12.52;;;;;;;;;;5012350;28;20052;-66
2023/06/25 06:00:54;;;;;;;17.38;13.00;;;;;;;;;;5010302;28;20030;-66
2023/06/25 06:03:19;;;;;;;16.80;12.57;;;;;;;;;;4995547;28;20054;-66
2023/06/25 06:05:44;;;;;;;16.05;12.18;;;;;;;;;;5004941;28;20457;-66
2023/06/25 06:08:10;;;;;;;16.55;13.32;;;;;;;;;;5009273;28;20029;-66
2023/06/25 06:10:35;;;;;;;16.15;12.23;;;;;;;;;;5007225;28;20357;-66
2023/06/25 06:13:00;;;;;;;17.90;13.20;;;;;;;;;;5010220;28;20021;-66
2023/06/25 06:15:26;;;;;;;14.93;11.77;;;;;;;;;;5012168;28;20118;-68
2023/06/25 06:17:51;;;;;;;18.20;12.93;;;;;;;;;;5001979;28;20018;-67
2023/06/25 06:20:16;;;;;;;17.23;13.07;;;;;;;;;;5004850;28;20100;-67
2023/06/25 06:22:41;;;;;;;15.80;12.68;;;;;;;;;;5011701;28;20104;-67
2023/06/25 06:25:07;;;;;;;27.52;12.75;;;;;;;;;;5010509;28;20160;-68
2023/06/25 06:27:32;;;;;;;18.52;12.70;;;;;;;;;;5013386;28;20033;-68
2023/06/25 06:29:58;;;;;;;21.73;12.88;;;;;;;;;;5007768;28;20081;-68
2023/06/25 06:32:23;;;;;;;16.15;12.18;;;;;;;;;;5011455;28;20045;-68
2023/06/25 06:34:48;;;;;;;16.05;11.63;;;;;;;;;;5012997;28;20022;-67
2023/06/25 06:37:13;;;;;;;14.88;11.43;;;;;;;;;;5010163;28;20034;-67
2023/06/25 06:39:39;;;;;;;14.15;10.95;;;;;;;;;;5000774;28;20014;-67
2023/06/25 06:42:04;;;;;;;13.50;10.30;;;;;;;;;;5010483;28;20033;-67
2023/06/25 06:44:31;;;;;;;14.55;11.15;;;;;;;;;;5009378;28;20030;-67
2023/06/25 06:46:56;;;;;;;15.80;10.60;;;;;;;;;;5004412;28;20046;-67
2023/06/25 06:49:21;;;;;;;13.27;10.18;;;;;;;;;;5013245;28;20018;-67
2023/06/25 06:51:46;;;;;;;14.93;10.32;;;;;;;;;;5006980;28;20060;-67
2023/06/25 06:54:12;;;;;;;14.45;9.90;;;;;;;;;;4994293;28;20110;-67
2023/06/25 06:56:38;;;;;;;14.25;9.50;;;;;;;;;;5007230;28;20021;-67
2023/06/25 06:59:03;;;;;;;11.82;8.98;;;;;;;;;;5014023;28;20014;-67
2023/06/25 07:01:29;;;;;;;12.48;9.13;;;;;;;;;;5010048;28;20022;-67
2023/06/25 07:03:54;;;;;;;13.93;9.13;;;;;;;;;;5013336;28;20412;-67
2023/06/25 07:06:20;;;;;;;13.23;9.00;;;;;;;;;;4998745;28;20384;-67
2023/06/25 07:08:46;;;;;;;12.30;8.68;;;;;;;;;;5000836;28;20090;-67
2023/06/25 07:11:12;;;;;;;13.00;9.73;;;;;;;;;;5007231;28;20026;-64
2023/06/25 07:13:38;;;;;;;14.23;9.48;;;;;;;;;;5012312;28;20041;-65
2023/06/25 07:16:03;;;;;;;12.23;8.23;;;;;;;;;;5013467;28;20026;-64
2023/06/25 07:18:29;;;;;;;13.90;8.50;;;;;;;;;;5010857;28;20431;-65
2023/06/25 07:20:54;;;;;;;11.40;7.97;;;;;;;;;;5013978;28;20101;-65
2023/06/25 07:23:19;;;;;;;10.85;8.02;;;;;;;;;;5013751;28;20010;-65
2023/06/25 07:25:45;;;;;;;10.15;7.53;;;;;;;;;;5008836;28;20018;-65
2023/06/25 07:28:10;;;;;;;9.48;7.78;;;;;;;;;;5013258;28;20014;-64
2023/06/25 07:30:36;;;;;;;11.98;8.10;;;;;;;;;;5013877;28;20092;-65
2023/06/25 07:33:03;;;;;;;10.48;7.40;;;;;;;;;;5013810;28;20081;-64
2023/06/25 07:35:28;;;;;;;10.32;7.88;;;;;;;;;;5012678;28;20026;-65
2023/06/25 07:37:53;;;;;;;10.35;6.03;;;;;;;;;;5007636;28;20076;-64
2023/06/25 07:40:18;;;;;;;9.82;6.50;;;;;;;;;;5003461;28;20551;-64
2023/06/25 07:42:44;;;;;;;7.95;6.03;;;;;;;;;;5004496;28;20026;-65
2023/06/25 07:45:09;;;;;;;8.77;6.13;;;;;;;;;;5004058;28;20022;-64
2023/06/25 07:47:35;;;;;;;10.93;5.60;;;;;;;;;;5007662;28;20110;-64
2023/06/25 07:50:00;;;;;;;10.93;5.95;;;;;;;;;;5005848;28;20018;-64
2023/06/25 07:52:25;;;;;;;8.35;5.30;;;;;;;;;;5008745;28;20018;-64
2023/06/25 07:54:51;;;;;;;7.70;5.55;;;;;;;;;;5009737;28;20025;-66
2023/06/25 07:57:16;;;;;;;8.40;5.30;;;;;;;;;;5010409;28;20085;-64
2023/06/25 07:59:42;;;;;;;7.72;5.28;;;;;;;;;;5011901;28;20388;-64
2023/06/25 08:02:07;;;;;;;8.63;4.72;;;;;;;;;;5008280;28;20045;-64
2023/06/25 08:04:32;;;;;;;8.27;5.20;;;;;;;;;;5011582;28;20030;-64
2023/06/25 08:06:58;;;;;;;8.18;5.15;;;;;;;;;;5008737;28;20028;-64
2023/06/25 08:09:23;;;;;;;6.47;4.60;;;;;;;;;;5013928;28;20109;-64
2023/06/25 08:11:48;;;;;;;6.15;4.82;;;;;;;;;;5012814;28;20365;-64
2023/06/25 08:14:13;;;;;;;7.72;5.13;;;;;;;;;;5012759;28;20120;-66
2023/06/25 08:16:39;;;;;;;7.65;4.97;;;;;;;;;;5006551;28;20068;-64
2023/06/25 08:19:04;;;;;;;5.70;3.90;;;;;;;;;;5000186;28;20391;-64
2023/06/25 08:21:29;;;;;;;8.15;5.38;;;;;;;;;;5015427;28;20021;-65
2023/06/25 08:23:54;;;;;;;6.60;5.00;;;;;;;;;;5010512;28;20058;-65
2023/06/25 08:26:20;;;;;;;8.48;4.80;;;;;;;;;;5014259;28;20036;-65
2023/06/25 08:28:45;;;;;;;8.02;5.00;;;;;;;;;;5016137;28;20022;-65
2023/06/25 08:31:10;;;;;;;8.80;5.47;;;;;;;;;;5015203;28;20030;-65
2023/06/25 08:33:36;;;;;;;8.15;5.15;;;;;;;;;;5013293;28;20017;-64
2023/06/25 08:36:02;;;;;;;7.40;4.38;;;;;;;;;;5014788;28;20481;-64
2023/06/25 08:38:27;;;;;;;6.22;3.90;;;;;;;;;;5015418;28;20088;-64
2023/06/25 08:40:53;;;;;;;5.82;4.05;;;;;;;;;;5015789;28;20364;-64
2023/06/25 08:43:18;;;;;;;6.43;4.32;;;;;;;;;;5012607;28;20368;-65
2023/06/25 08:45:44;;;;;;;6.47;4.20;;;;;;;;;;5014914;28;20018;-64
2023/06/25 08:48:13;;;;;;;6.88;4.13;;;;;;;;;;5016017;28;20014;-64
2023/06/25 08:50:40;;;;;;;5.18;3.70;;;;;;;;;;5015540;28;20033;-65
2023/06/25 08:53:06;;;;;;;6.80;4.15;;;;;;;;;;5013923;28;20017;-65
2023/06/25 08:55:31;;;;;;;7.50;4.50;;;;;;;;;;5012455;28;20113;-64
2023/06/25 08:57:56;;;;;;;8.23;4.40;;;;;;;;;;5012936;28;20471;-64
2023/06/25 09:00:22;;;;;;;7.07;3.92;;;;;;;;;;5014850;28;20026;-65
2023/06/25 09:02:47;;;;;;;6.53;4.10;;;;;;;;;;5014538;28;20500;-64
2023/06/25 09:05:13;;;;;;;7.47;4.30;;;;;;;;;;5014951;28;20542;-64
2023/06/25 09:07:45;;;;;;;6.88;4.45;;;;;;;;;;5008577;28;20383;-64
2023/06/25 09:10:10;;;;;;;5.72;3.78;;;;;;;;;;5007116;28;20108;-64
2023/06/25 09:12:35;;;;;;;6.95;4.03;;;;;;;;;;5009553;28;20109;-65
2023/06/25 09:15:01;;;;;;;6.47;4.20;;;;;;;;;;5011923;28;20403;-65
2023/06/25 09:17:26;;;;;;;6.55;3.72;;;;;;;;;;5007737;28;20487;-64
2023/06/25 09:19:51;;;;;;;8.25;4.22;;;;;;;;;;5004083;28;20084;-65
2023/06/25 09:22:17;;;;;;;5.65;4.00;;;;;;;;;;5010649;28;20688;-64
2023/06/25 09:24:43;;;;;;;5.90;3.50;;;;;;;;;;5003446;28;20030;-66
2023/06/25 09:27:09;;;;;;;5.70;3.15;;;;;;;;;;5009175;28;20113;-65
2023/06/25 09:29:35;;;;;;;5.80;3.47;;;;;;;;;;5002529;28;20017;-64
2023/06/25 09:32:05;;;;;;;6.30;3.35;;;;;;;;;;5007024;28;20018;-64
2023/06/25 09:34:31;;;;;;;4.75;3.17;;;;;;;;;;5003974;28;20450;-64
2023/06/25 09:36:56;;;;;;;6.15;3.45;;;;;;;;;;5007764;28;20049;-64
2023/06/25 09:39:21;;;;;;;6.75;3.30;;;;;;;;;;5014986;28;20309;-64
2023/06/25 09:41:47;;;;;;;5.85;3.13;;;;;;;;;;5005034;28;20076;-64
2023/06/25 09:44:13;;;;;;;7.03;2.90;;;;;;;;;;5011764;28;20088;-65
2023/06/25 09:46:39;;;;;;;5.60;2.75;;;;;;;;;;5015384;28;20030;-64
2023/06/25 09:49:05;;;;;;;4.57;3.00;;;;;;;;;;5012855;28;20472;-64
2023/06/25 09:51:44;;;;;;;4.50;2.95;;;;;;;;;;5012823;28;20014;-65
2023/06/25 09:54:11;;;;;;;4.85;2.95;;;;;;;;;;5014091;28;20052;-64
2023/06/25 09:56:38;;;;;;;4.72;2.97;;;;;;;;;;5014239;28;20021;-64
2023/06/25 09:59:03;;;;;;;4.78;2.80;;;;;;;;;;5015320;28;20022;-64
2023/06/25 10:01:29;;;;;;;5.32;3.20;;;;;;;;;;5015527;28;20487;-64
2023/06/25 10:03:54;;;;;;;7.43;2.70;;;;;;;;;;5013628;28;20400;-65
2023/06/25 10:06:19;;;;;;;5.80;2.70;;;;;;;;;;5014247;28;20503;-65
2023/06/25 10:08:45;;;;;;;5.25;3.00;;;;;;;;;;5014734;28;20028;-64
2023/06/25 10:11:13;;;;;;;4.72;2.80;;;;;;;;;;5015545;28;20056;-65
2023/06/25 10:13:39;;;;;;;5.13;2.72;;;;;;;;;;5013745;28;20026;-64
2023/06/25 10:16:04;;;;;;;5.05;2.85;;;;;;;;;;5015470;28;20101;-59
2023/06/25 10:18:30;;;;;;;5.90;2.90;;;;;;;;;;5012027;28;20579;-59
2023/06/25 10:20:59;;;;;;;6.20;3.00;;;;;;;;;;5012013;28;20030;-59
2023/06/25 10:23:24;;;;;;;5.55;3.25;;;;;;;;;;5010901;28;20495;-59
2023/06/25 10:25:54;;;;;;;6.40;3.20;;;;;;;;;;5012410;28;20041;-59
2023/06/25 10:28:27;;;;;;;5.03;3.03;;;;;;;;;;5010127;28;20480;-59
2023/06/25 10:30:52;;;;;;;4.60;3.10;;;;;;;;;;5014600;28;20494;-59
2023/06/25 10:33:18;;;;;;;4.43;2.85;;;;;;;;;;5010620;28;20026;-60
2023/06/25 10:35:46;;;;;;;5.30;2.95;;;;;;;;;;5012599;28;20068;-59
2023/06/25 10:38:11;;;;;;;4.50;3.08;;;;;;;;;;4999321;28;20029;-59
2023/06/25 10:40:37;;;;;;;4.93;2.92;;;;;;;;;;5013101;28;20359;-58
2023/06/25 10:43:02;;;;;;;6.95;3.38;;;;;;;;;;4998853;28;20030;-59
2023/06/25 10:45:28;;;;;;;6.43;3.33;;;;;;;;;;5011426;28;20113;-59
2023/06/25 10:48:03;;;;;;;5.47;3.25;;;;;;;;;;5012654;28;20018;-59
2023/06/25 10:50:32;;;;;;;5.57;3.08;;;;;;;;;;5013668;28;20101;-59
2023/06/25 10:52:57;;;;;;;5.57;3.08;;;;;;;;;;5013273;28;20026;-59
2023/06/25 10:55:23;;;;;;;5.28;2.85;;;;;;;;;;5013481;28;20028;-59
2023/06/25 10:57:48;;;;;;;6.55;2.85;;;;;;;;;;5011473;28;20058;-60
2023/06/25 11:00:14;;;;;;;6.28;2.90;;;;;;;;;;5009263;28;20487;-59
2023/06/25 11:02:39;;;;;;;6.78;3.20;;;;;;;;;;5011467;28;20057;-59
2023/06/25 11:05:05;;;;;;;5.20;2.88;;;;;;;;;;5013097;28;20050;-59
2023/06/25 11:07:30;;;;;;;5.93;3.03;;;;;;;;;;5013582;28;20097;-60
2023/06/25 11:09:59;;;;;;;5.20;3.05;;;;;;;;;;5010721;28;20075;-60
2023/06/25 11:12:25;;;;;;;4.90;2.85;;;;;;;;;;5013224;28;20029;-59
2023/06/25 11:14:50;;;;;;;5.25;2.97;;;;;;;;;;5013681;28;20026;-61
2023/06/25 11:17:16;;;;;;;5.93;3.20;;;;;;;;;;5010927;28;20092;-61
2023/06/25 11:19:41;;;;;;;5.15;2.90;;;;;;;;;;5008699;28;20018;-60
2023/06/25 11:22:07;;;;;;;6.10;3.05;;;;;;;;;;5008995;28;20131;-59
2023/06/25 11:24:36;;;;;;;7.30;3.20;;;;;;;;;;5012533;28;20464;-59
2023/06/25 11:27:01;;;;;;;4.10;2.80;;;;;;;;;;4999191;28;20029;-60
2023/06/25 11:29:40;;;;;;;5.63;3.00;;;;;;;;;;5010368;28;20037;-60
2023/06/25 11:32:08;;;;;;;5.05;2.95;;;;;;;;;;5006553;28;20384;-61
2023/06/25 11:34:33;;;;;;;4.30;2.97;;;;;;;;;;4997488;28;20076;-60
2023/06/25 11:37:11;;;;;;;6.53;3.00;;;;;;;;;;4992639;28;20033;-61
2023/06/25 11:39:47;;;;;;;10.30;3.13;;;;;;;;;;5004600;28;20022;-61
2023/06/25 11:42:13;;;;;;;4.95;2.85;;;;;;;;;;5004573;28;20038;-61
2023/06/25 11:44:38;;;;;;;4.40;3.10;;;;;;;;;;5008070;28;20021;-62
2023/06/25 11:47:04;;;;;;;5.20;3.03;;;;;;;;;;5006449;28;20044;-61
2023/06/25 11:49:29;;;;;;;7.85;3.45;;;;;;;;;;5003223;28;20490;-61
2023/06/25 11:51:55;;;;;;;5.82;3.20;;;;;;;;;;5008846;28;20625;-61
2023/06/25 11:54:20;;;;;;;4.60;3.03;;;;;;;;;;5003952;28;20033;-61
2023/06/25 11:56:45;;;;;;;5.03;3.13;;;;;;;;;;5006109;28;20021;-60
2023/06/25 11:59:11;;;;;;;5.03;3.20;;;;;;;;;;5007957;28;20018;-60
2023/06/25 12:01:36;;;;;;;4.63;3.00;;;;;;;;;;5006989;28;20161;-61
2023/06/25 12:04:01;;;;;;;5.10;3.13;;;;;;;;;;5000145;28;20042;-66
2023/06/25 12:06:27;;;;;;;7.18;3.20;;;;;;;;;;5009499;28;20719;-68
2023/06/25 12:08:52;;;;;;;5.20;3.25;;;;;;;;;;5010899;28;20024;-67
2023/06/25 12:11:17;;;;;;;5.78;2.72;;;;;;;;;;5010491;28;20022;-67
2023/06/25 12:13:43;;;;;;;4.40;2.80;;;;;;;;;;5010773;28;20025;-66
2023/06/25 12:16:08;;;;;;;5.25;2.80;;;;;;;;;;5011389;28;20022;-66
2023/06/25 12:18:33;;;;;;;4.15;2.60;;;;;;;;;;5011044;28;20041;-68
2023/06/25 12:20:59;;;;;;;5.25;2.90;;;;;;;;;;5012295;28;20468;-70
2023/06/25 12:23:24;;;;;;;4.30;2.85;;;;;;;;;;5009557;28;20022;-68
2023/06/25 12:25:49;;;;;;;5.35;2.70;;;;;;;;;;5005530;28;20038;-68
2023/06/25 12:28:15;;;;;;;4.50;2.78;;;;;;;;;;5005300;28;20025;-69
2023/06/25 12:30:40;;;;;;;6.47;2.80;;;;;;;;;;5007871;28;20014;-69
2023/06/25 12:33:05;;;;;;;5.95;2.90;;;;;;;;;;5011681;28;20038;-71
2023/06/25 12:35:30;;;;;;;5.40;2.90;;;;;;;;;;5011805;28;20099;-69
2023/06/25 12:37:56;;;;;;;5.32;3.10;;;;;;;;;;4997594;28;20038;-69
2023/06/25 12:40:21;;;;;;;7.18;2.90;;;;;;;;;;5000566;28;20029;-68
2023/06/25 12:42:46;;;;;;;4.95;2.85;;;;;;;;;;5002177;28;20384;-68
2023/06/25 12:45:12;;;;;;;5.38;2.95;;;;;;;;;;5003146;28;20045;-66
2023/06/25 12:47:37;;;;;;;5.93;3.10;;;;;;;;;;4999205;28;20103;-67
2023/06/25 12:50:02;;;;;;;4.45;2.63;;;;;;;;;;5003089;28;20026;-70
2023/06/25 12:52:28;;;;;;;5.15;2.80;;;;;;;;;;4994645;28;20077;-70
2023/06/25 12:54:54;;;;;;;7.50;2.70;;;;;;;;;;5002715;28;20034;-71
2023/06/25 12:57:19;;;;;;;5.60;2.70;;;;;;;;;;5006377;28;20576;-70
2023/06/25 12:59:44;;;;;;;5.68;2.97;;;;;;;;;;5005876;28;20056;-68
2023/06/25 13:02:10;;;;;;;5.18;2.55;;;;;;;;;;5003483;28;20514;-70
2023/06/25 13:04:35;;;;;;;4.95;2.85;;;;;;;;;;5009659;28;20026;-71
2023/06/25 13:07:00;;;;;;;4.70;2.67;;;;;;;;;;5006431;28;20018;-70
2023/06/25 13:09:27;;;;;;;4.25;2.47;;;;;;;;;;5002056;28;20026;-71
2023/06/25 13:11:52;;;;;;;4.38;2.80;;;;;;;;;;5002091;28;20392;-72
2023/06/25 13:14:17;;;;;;;4.63;3.00;;;;;;;;;;5007340;28;20022;-72
2023/06/25 13:16:43;;;;;;;4.53;2.85;;;;;;;;;;5010637;28;20022;-71
2023/06/25 13:19:08;;;;;;;4.97;2.90;;;;;;;;;;5014705;28;20022;-71
2023/06/25 13:21:33;;;;;;;5.20;3.00;;;;;;;;;;5002956;28;20543;-72
2023/06/25 13:23:59;;;;;;;4.35;2.83;;;;;;;;;;5005539;28;20026;-72
2023/06/25 13:26:24;;;;;;;4.07;3.00;;;;;;;;;;5014016;28;20383;-73
2023/06/25 13:28:49;;;;;;;5.90;2.67;;;;;;;;;;5009365;28;20018;-73
2023/06/25 13:31:15;;;;;;;5.65;3.30;;;;;;;;;;5010007;28;20049;-73
2023/06/25 13:33:40;;;;;;;5.65;3.08;;;;;;;;;;5011846;28;20068;-74
2023/06/25 13:36:06;;;;;;;4.45;3.00;;;;;;;;;;5003203;28;20026;-72
2023/06/25 13:38:31;;;;;;;7.30;2.92;;;;;;;;;;5004624;28;20053;-70
2023/06/25 13:40:56;;;;;;;4.22;2.72;;;;;;;;;;5006066;28;20026;-72
2023/06/25 13:43:21;;;;;;;7.30;2.90;;;;;;;;;;5008727;28;20109;-73
2023/06/25 13:45:47;;;;;;;4.13;2.80;;;;;;;;;;5007572;28;20564;-73
2023/06/25 13:48:12;;;;;;;4.68;2.90;;;;;;;;;;5010511;28;20093;-72
2023/06/25 13:50:37;;;;;;;4.72;2.97;;;;;;;;;;5004382;28;20037;-72
2023/06/25 13:53:03;;;;;;;5.03;2.72;;;;;;;;;;5006710;28;20041;-73
2023/06/25 13:55:28;;;;;;;5.25;2.78;;;;;;;;;;5005601;28;20395;-72
2023/06/25 13:57:54;;;;;;;7.00;2.95;;;;;;;;;;5009647;28;20038;-72
2023/06/25 14:00:19;;;;;;;4.32;2.70;;;;;;;;;;5008530;28;20023;-73
2023/06/25 14:02:45;;;;;;;6.00;2.85;;;;;;;;;;5014107;28;20049;-73
2023/06/25 14:05:11;;;;;;;5.03;2.85;;;;;;;;;;5016179;28;20438;-73
2023/06/25 14:07:37;;;;;;;4.07;2.88;;;;;;;;;;5009338;28;20034;-73
2023/06/25 14:10:02;;;;;;;4.45;2.80;;;;;;;;;;5011654;28;20021;-72
2023/06/25 14:12:28;;;;;;;4.63;2.90;;;;;;;;;;5016104;28;20018;-72
2023/06/25 14:14:53;;;;;;;5.13;3.10;;;;;;;;;;5010294;28;20022;-72
2023/06/25 14:17:18;;;;;;;4.63;2.90;;;;;;;;;;5014689;28;20385;-72
2023/06/25 14:19:44;;;;;;;4.78;3.10;;;;;;;;;;5008166;28;20400;-71